createdAt,value
2018-07-15T00:00:23.397Z,57.26
2018-07-15T00:05:15.822Z,57.44
2018-07-15T00:10:08.327Z,57.50
2018-07-15T00:15:01.068Z,58.77
2018-07-15T00:19:53.632Z,58.11
2018-07-15T00:24:46.235Z,58.91
2018-07-15T00:29:38.847Z,59.49
2018-07-15T00:34:31.397Z,60.29
2018-07-15T00:39:23.969Z,60.17
2018-07-15T00:44:16.559Z,60.21
2018-07-15T00:49:09.233Z,60.77
2018-07-15T00:54:01.765Z,60.56
2018-07-15T00:58:54.297Z,61.81
2018-07-15T01:03:46.885Z,62.41
2018-07-15T01:08:39.497Z,62.73
2018-07-15T01:13:32.094Z,62.64
2018-07-15T01:18:24.695Z,62.94
2018-07-15T01:23:17.316Z,62.81
2018-07-15T01:28:09.978Z,63.21
2018-07-15T01:33:02.604Z,63.74
2018-07-15T01:37:55.257Z,64.14
2018-07-15T01:42:47.817Z,64.02
2018-07-15T01:47:40.382Z,63.78
2018-07-15T01:52:32.999Z,63.81
2018-07-15T01:57:25.599Z,64.59
2018-07-15T02:02:18.254Z,64.57
2018-07-15T02:07:10.873Z,64.66
2018-07-15T02:12:03.434Z,65.17
2018-07-15T02:16:55.966Z,65.58
2018-07-15T02:21:48.576Z,65.29
2018-07-15T02:26:41.150Z,65.51
2018-07-15T02:31:33.855Z,64.98
2018-07-15T02:36:26.384Z,65.54
2018-07-15T02:41:18.976Z,66.17
2018-07-15T02:46:11.673Z,66.41
2018-07-15T02:51:04.290Z,66.14
2018-07-15T02:55:56.846Z,66.88
2018-07-15T03:00:49.465Z,66.92
2018-07-15T03:05:42.084Z,67.12
2018-07-15T03:10:34.646Z,67.92
2018-07-15T03:15:27.273Z,68.23
2018-07-15T03:20:19.786Z,68.00
2018-07-15T03:25:12.438Z,68.92
2018-07-15T03:30:05.015Z,69.23
2018-07-15T03:34:57.568Z,69.50
2018-07-15T03:39:50.181Z,69.19
2018-07-15T03:44:42.972Z,69.91
2018-07-15T03:49:35.587Z,70.23
2018-07-15T03:54:28.080Z,70.18
2018-07-15T03:59:20.662Z,70.46
2018-07-15T04:04:13.241Z,70.06
2018-07-15T04:09:06.199Z,70.88
2018-07-15T04:13:58.795Z,70.42
2018-07-15T04:18:51.362Z,69.99
2018-07-15T04:23:44.191Z,69.84
2018-07-15T04:28:36.787Z,70.06
2018-07-15T04:33:29.403Z,69.67
2018-07-15T04:38:21.989Z,69.28
2018-07-15T04:43:14.548Z,68.88
2018-07-15T04:48:07.201Z,68.99
2018-07-15T04:52:59.774Z,68.23
2018-07-15T04:57:52.326Z,67.87
2018-07-15T05:02:45.948Z,68.06
2018-07-15T05:07:38.517Z,68.53
2018-07-15T05:12:31.138Z,68.18
2018-07-15T05:17:23.734Z,67.73
2018-07-15T05:22:16.359Z,67.58
2018-07-15T05:27:08.909Z,67.04
2018-07-15T05:32:01.590Z,67.81
2018-07-15T05:36:54.121Z,67.68
2018-07-15T05:41:46.681Z,67.44
2018-07-15T05:46:39.400Z,66.86
2018-07-15T05:51:32.051Z,66.99
2018-07-15T05:56:24.639Z,66.69
2018-07-15T06:01:17.223Z,66.67
2018-07-15T06:06:09.872Z,66.00
2018-07-15T06:11:02.542Z,66.36
2018-07-15T06:15:55.106Z,66.44
2018-07-15T06:20:47.836Z,65.53
2018-07-15T06:25:40.502Z,65.49
2018-07-15T06:30:33.073Z,65.79
2018-07-15T06:35:25.638Z,64.93
2018-07-15T06:40:18.226Z,64.73
2018-07-15T06:45:10.970Z,65.29
2018-07-15T06:50:03.675Z,64.91
2018-07-15T06:54:56.336Z,64.76
2018-07-15T06:59:48.938Z,64.62
2018-07-15T07:04:41.847Z,64.08
2018-07-15T07:09:34.338Z,63.34
2018-07-15T07:14:26.936Z,63.35
2018-07-15T07:19:19.586Z,63.30
2018-07-15T07:24:12.122Z,62.70
2018-07-15T07:29:04.722Z,60.26
2018-07-15T07:33:57.305Z,54.16
2018-07-15T07:38:49.976Z,48.02
2018-07-15T07:43:42.546Z,44.88
2018-07-15T07:48:35.155Z,40.83
2018-07-15T07:53:28.006Z,38.38
2018-07-15T07:58:20.570Z,37.33
2018-07-15T08:03:13.156Z,37.20
2018-07-15T08:08:05.782Z,37.81
2018-07-15T08:12:58.408Z,37.17
2018-07-15T08:17:51.208Z,36.79
2018-07-15T08:22:43.802Z,37.48
2018-07-15T08:27:36.375Z,39.63
2018-07-15T08:32:29.110Z,40.20
2018-07-15T08:37:21.737Z,39.56
2018-07-15T08:42:14.338Z,40.34
2018-07-15T08:47:06.914Z,40.17
2018-07-15T08:52:01.505Z,39.92
2018-07-15T08:56:54.122Z,39.42
2018-07-15T09:01:46.787Z,40.82
2018-07-15T09:06:39.371Z,41.48
2018-07-15T09:11:31.926Z,41.50
2018-07-15T09:16:24.536Z,40.63
2018-07-15T09:21:17.111Z,41.51
2018-07-15T09:26:09.675Z,40.41
2018-07-15T09:31:02.272Z,40.84
2018-07-15T09:35:54.827Z,40.90
2018-07-15T09:40:47.418Z,41.72
2018-07-15T09:45:39.932Z,41.80
2018-07-15T09:50:32.573Z,41.96
2018-07-15T09:55:25.198Z,40.55
2018-07-15T10:00:23.680Z,40.93
2018-07-15T10:05:16.531Z,40.75
2018-07-15T10:10:09.118Z,40.74
2018-07-15T10:15:01.742Z,41.39
2018-07-15T10:19:54.478Z,41.36
2018-07-15T10:24:47.203Z,41.14
2018-07-15T10:29:39.783Z,40.50
2018-07-15T10:34:32.610Z,40.99
2018-07-15T10:39:25.405Z,39.78
2018-07-15T10:44:17.986Z,40.86
2018-07-15T10:49:10.629Z,40.02
2018-07-15T10:54:03.418Z,40.37
2018-07-15T10:58:56.067Z,41.58
2018-07-15T11:03:48.742Z,41.74
2018-07-15T11:08:41.259Z,41.24
2018-07-15T11:13:33.819Z,41.04
2018-07-15T11:18:26.498Z,41.16
2018-07-15T11:23:19.071Z,40.08
2018-07-15T11:28:11.629Z,39.80
2018-07-15T11:33:04.194Z,39.73
2018-07-15T11:37:56.777Z,40.87
2018-07-15T11:42:49.448Z,40.39
2018-07-15T11:47:42.002Z,41.47
2018-07-15T11:52:34.632Z,41.67
2018-07-15T11:57:27.229Z,40.62
2018-07-15T12:02:19.819Z,40.51
2018-07-15T12:07:12.487Z,40.30
2018-07-15T12:12:05.027Z,39.94
2018-07-15T12:16:57.815Z,40.34
2018-07-15T12:21:50.398Z,39.25
2018-07-15T12:26:43.130Z,40.03
2018-07-15T12:31:35.880Z,39.07
2018-07-15T12:36:28.463Z,39.41
2018-07-15T12:41:21.142Z,38.70
2018-07-15T12:46:13.748Z,38.45
2018-07-15T12:51:06.330Z,38.93
2018-07-15T12:55:59.024Z,38.49
2018-07-15T13:00:51.655Z,38.07
2018-07-15T13:05:44.246Z,36.92
2018-07-15T13:10:36.895Z,36.44
2018-07-15T13:15:29.484Z,36.09
2018-07-15T13:20:22.805Z,36.96
2018-07-15T13:25:15.361Z,36.90
2018-07-15T13:30:07.991Z,37.39
2018-07-15T13:35:00.610Z,36.93
2018-07-15T13:39:53.221Z,37.90
2018-07-15T13:44:45.751Z,37.13
2018-07-15T13:49:38.346Z,36.14
2018-07-15T13:54:30.889Z,35.11
2018-07-15T13:59:23.436Z,36.29
2018-07-15T14:04:16.088Z,35.99
2018-07-15T14:09:08.653Z,36.42
2018-07-15T14:14:01.227Z,36.32
2018-07-15T14:18:53.827Z,35.55
2018-07-15T14:23:46.381Z,35.41
2018-07-15T14:28:38.970Z,35.15
2018-07-15T14:33:31.760Z,34.75
2018-07-15T14:38:24.375Z,35.06
2018-07-15T14:43:16.983Z,35.94
2018-07-15T14:48:09.566Z,35.06
2018-07-15T14:53:02.163Z,35.14
2018-07-15T14:57:54.685Z,35.77
2018-07-15T15:02:47.275Z,35.18
2018-07-15T15:07:39.815Z,35.80
2018-07-15T15:12:32.449Z,36.11
2018-07-15T15:17:25.024Z,35.94
2018-07-15T15:22:17.687Z,35.43
2018-07-15T15:27:10.291Z,34.94
2018-07-15T15:32:02.928Z,35.70
2018-07-15T15:36:55.527Z,35.94
2018-07-15T15:41:48.092Z,36.32
2018-07-15T15:46:40.731Z,36.31
2018-07-15T15:51:33.314Z,35.88
2018-07-15T15:56:26.015Z,34.89
2018-07-15T16:01:18.606Z,36.13
2018-07-15T16:06:11.197Z,35.28
2018-07-15T16:11:03.772Z,36.74
2018-07-15T16:15:56.287Z,36.20
2018-07-15T16:20:49.579Z,36.56
2018-07-15T16:25:42.127Z,36.39
2018-07-15T16:30:34.703Z,36.95
2018-07-15T16:35:27.387Z,35.67
2018-07-15T16:40:19.934Z,36.31
2018-07-15T16:45:12.498Z,36.17
2018-07-15T16:50:05.222Z,35.10
2018-07-15T16:54:57.920Z,35.76
2018-07-15T16:59:50.461Z,35.52
2018-07-15T17:04:43.047Z,36.54
2018-07-15T17:09:35.617Z,37.24
2018-07-15T17:14:28.383Z,36.89
2018-07-15T17:19:20.998Z,35.92
2018-07-15T17:24:13.614Z,37.33
2018-07-15T17:29:06.202Z,37.39
2018-07-15T17:33:58.810Z,36.79
2018-07-15T17:38:51.446Z,37.04
2018-07-15T17:43:44.213Z,38.01
2018-07-15T17:48:36.875Z,37.96
2018-07-15T17:53:29.501Z,38.44
2018-07-15T17:58:22.079Z,38.05
2018-07-15T18:03:14.666Z,38.71
2018-07-15T18:08:07.267Z,38.61
2018-07-15T18:12:59.990Z,37.99
2018-07-15T18:17:52.604Z,37.94
2018-07-15T18:22:45.218Z,38.43
2018-07-15T18:27:37.786Z,39.61
2018-07-15T18:32:30.390Z,39.10
2018-07-15T18:37:23.146Z,39.94
2018-07-15T18:42:15.846Z,40.03
2018-07-15T18:47:08.435Z,39.56
2018-07-15T18:52:01.130Z,40.53
2018-07-15T18:56:53.766Z,40.19
2018-07-15T19:01:46.319Z,40.42
2018-07-15T19:06:38.907Z,41.46
2018-07-15T19:11:31.706Z,41.23
2018-07-15T19:16:24.298Z,42.27
2018-07-15T19:21:16.940Z,41.74
2018-07-15T19:26:09.547Z,41.42
2018-07-15T19:31:02.108Z,42.37
2018-07-15T19:35:54.658Z,42.87
2018-07-15T19:40:47.249Z,42.57
2018-07-15T19:45:39.891Z,42.29
2018-07-15T19:50:32.532Z,43.42
2018-07-15T19:55:25.109Z,43.93
2018-07-15T20:00:17.659Z,43.87
2018-07-15T20:05:10.264Z,44.28
2018-07-15T20:10:02.874Z,43.65
2018-07-15T20:14:55.527Z,43.98
2018-07-15T20:19:48.101Z,44.76
2018-07-15T20:24:40.759Z,45.27
2018-07-15T20:29:33.319Z,45.46
2018-07-15T20:34:25.985Z,45.25
2018-07-15T20:39:18.416Z,45.46
2018-07-15T20:44:10.977Z,45.83
2018-07-15T20:49:03.581Z,46.86
2018-07-15T20:53:56.215Z,46.85
2018-07-15T20:58:48.789Z,47.28
2018-07-15T21:03:41.453Z,47.55
2018-07-15T21:08:34.116Z,47.66
2018-07-15T21:13:26.817Z,48.61
2018-07-15T21:18:19.387Z,47.94
2018-07-15T21:23:11.997Z,48.31
2018-07-15T21:28:04.858Z,49.47
2018-07-15T21:32:57.357Z,49.52
2018-07-15T21:37:50.019Z,49.26
2018-07-15T21:42:42.740Z,50.71
2018-07-15T21:47:35.369Z,50.54
2018-07-15T21:52:27.972Z,51.38
2018-07-15T21:57:20.526Z,51.84
2018-07-15T22:02:13.624Z,51.99
2018-07-15T22:07:24.031Z,51.67
2018-07-15T22:12:16.625Z,52.37
2018-07-15T22:17:09.195Z,53.31
2018-07-15T22:22:01.865Z,53.48
2018-07-15T22:26:54.426Z,53.51
2018-07-15T22:31:47.070Z,53.84
2018-07-15T22:36:39.714Z,54.00
2018-07-15T22:41:32.274Z,54.34
2018-07-15T22:46:24.866Z,55.38
2018-07-15T22:51:17.390Z,55.35
2018-07-15T22:56:10.038Z,55.79
2018-07-15T23:01:02.712Z,56.32
2018-07-15T23:06:12.959Z,56.52
2018-07-15T23:11:05.511Z,56.39
2018-07-15T23:15:58.106Z,56.86
2018-07-15T23:20:51.253Z,57.66
2018-07-15T23:25:43.915Z,57.59
2018-07-15T23:30:37.566Z,57.96
2018-07-15T23:35:30.461Z,58.53
2018-07-15T23:40:23.158Z,59.19
2018-07-15T23:45:15.732Z,59.04
2018-07-15T23:50:08.394Z,58.84
2018-07-15T23:55:01.098Z,59.16
2018-07-15T23:59:53.839Z,60.30
